createdAt,value
2022-10-04T00:00:04.866Z,60.26
2022-10-04T00:02:04.871Z,59.62
2022-10-04T00:04:04.844Z,59.55
2022-10-04T00:07:04.828Z,60
2022-10-04T00:09:04.843Z,60.14
2022-10-04T00:12:04.896Z,59.45
2022-10-04T00:15:04.845Z,60.19
2022-10-04T00:17:04.892Z,60.01
2022-10-04T00:20:04.842Z,59.99
2022-10-04T00:22:04.855Z,60.36
2022-10-04T00:25:04.845Z,59.33
2022-10-04T00:28:04.873Z,59.64
2022-10-04T00:30:04.848Z,60.56
2022-10-04T00:33:04.850Z,59.86
2022-10-04T00:36:04.825Z,60.55
2022-10-04T00:38:04.836Z,59.71
2022-10-04T00:40:06.549Z,60.17
2022-10-04T00:43:04.818Z,59.89
2022-10-04T00:45:04.856Z,60.25
2022-10-04T00:48:04.833Z,59.56
2022-10-04T00:50:04.862Z,59.87
2022-10-04T00:52:04.827Z,59.57
2022-10-04T00:54:05.867Z,59.54
2022-10-04T00:57:04.835Z,59.69
2022-10-04T00:59:04.853Z,60.05
2022-10-04T01:02:04.945Z,59.99
2022-10-04T01:05:04.851Z,59.81
2022-10-04T01:08:04.862Z,59.71
2022-10-04T01:11:04.855Z,59.84
2022-10-04T01:14:04.885Z,60.19
2022-10-04T01:17:04.855Z,59.63
2022-10-04T01:19:04.856Z,59.51
2022-10-04T01:22:04.848Z,59.45
2022-10-04T01:25:04.856Z,59.04
2022-10-04T01:28:04.887Z,59.55
2022-10-04T01:30:04.845Z,59.61
2022-10-04T01:32:04.827Z,59.23
2022-10-04T01:35:04.857Z,59.62
2022-10-04T01:38:04.822Z,59.2
2022-10-04T01:40:04.865Z,59.97
2022-10-04T01:43:04.817Z,59.52
2022-10-04T01:45:04.848Z,59.37
2022-10-04T01:47:04.839Z,59.56
2022-10-04T01:49:04.844Z,59.75
2022-10-04T01:52:04.886Z,59.32
2022-10-04T01:55:04.817Z,59.3
2022-10-04T01:57:04.886Z,59.66
2022-10-04T02:00:04.856Z,59.8
2022-10-04T02:02:04.848Z,59.3
2022-10-04T02:04:04.825Z,59.58
2022-10-04T02:06:04.831Z,59.08
2022-10-04T02:09:04.813Z,58.79
2022-10-04T02:11:04.852Z,59.1
2022-10-04T02:14:04.862Z,58.54
2022-10-04T02:16:04.966Z,59.36
2022-10-04T02:19:04.851Z,58.87
2022-10-04T02:21:04.883Z,59.4
2022-10-04T02:24:04.852Z,59.23
2022-10-04T02:27:04.838Z,59.03
2022-10-04T02:29:04.891Z,59.57
2022-10-04T02:32:04.848Z,59.35
2022-10-04T02:35:04.856Z,59.63
2022-10-04T02:38:04.856Z,59.57
2022-10-04T02:41:04.879Z,59.68
2022-10-04T02:44:04.859Z,59.87
2022-10-04T02:47:04.838Z,59.31
2022-10-04T02:49:04.839Z,59.85
2022-10-04T02:52:04.863Z,60.02
2022-10-04T02:54:04.850Z,59.75
2022-10-04T02:57:04.888Z,59.38
2022-10-04T03:00:04.854Z,59.48
2022-10-04T03:03:04.858Z,60.1
2022-10-04T03:05:04.862Z,59.58
2022-10-04T03:07:04.870Z,60.16
2022-10-04T03:09:04.889Z,59.83
2022-10-04T03:12:05.882Z,59.74
2022-10-04T03:14:04.866Z,60.44
2022-10-04T03:17:04.872Z,59.61
2022-10-04T03:20:04.832Z,60.35
2022-10-04T03:22:04.845Z,60.26
2022-10-04T03:24:04.847Z,60.03
2022-10-04T03:26:04.901Z,59.96
2022-10-04T03:28:04.907Z,60.12
2022-10-04T03:31:04.888Z,59.93
2022-10-04T03:33:04.848Z,60.05
2022-10-04T03:36:04.871Z,60.09
2022-10-04T03:38:04.852Z,60.15
2022-10-04T03:41:04.881Z,60.05
2022-10-04T03:44:05.228Z,60.01
2022-10-04T03:46:04.988Z,59.54
2022-10-04T03:49:04.861Z,60.35
2022-10-04T03:52:04.854Z,60.36
2022-10-04T03:54:04.863Z,60.7
2022-10-04T03:56:04.875Z,60.43
2022-10-04T03:59:04.854Z,60.49
2022-10-04T04:01:04.911Z,60.67
2022-10-04T04:04:04.871Z,59.69
2022-10-04T04:07:04.861Z,60.48
2022-10-04T04:10:04.876Z,60.27
2022-10-04T04:13:04.844Z,60.02
2022-10-04T04:16:04.876Z,59.83
2022-10-04T04:18:04.897Z,59.67
2022-10-04T04:21:04.930Z,59.53
2022-10-04T04:23:04.941Z,59.16
2022-10-04T04:26:04.868Z,58.97
2022-10-04T04:29:04.892Z,58.93
2022-10-04T04:32:04.916Z,58.64
2022-10-04T04:34:04.880Z,59.1
2022-10-04T04:37:04.921Z,58.67
2022-10-04T04:40:04.869Z,58.78
2022-10-04T04:42:04.869Z,59.11
2022-10-04T04:45:04.883Z,59.34
2022-10-04T04:47:04.848Z,58.89
2022-10-04T04:49:04.866Z,59.02
2022-10-04T04:52:04.876Z,59.17
2022-10-04T04:55:04.831Z,59.18
2022-10-04T04:57:04.886Z,59.04
2022-10-04T05:00:04.876Z,59.08
2022-10-04T05:02:04.890Z,59.22
2022-10-04T05:05:04.893Z,59
2022-10-04T05:08:05.952Z,59.03
2022-10-04T05:11:12.034Z,59.34
2022-10-04T05:13:04.870Z,58.94
2022-10-04T05:16:04.887Z,59.15
2022-10-04T05:18:04.841Z,59.06
2022-10-04T05:20:04.901Z,59.61
2022-10-04T05:23:04.882Z,59.15
2022-10-04T05:25:04.899Z,58.67
2022-10-04T05:28:05.003Z,59.18
2022-10-04T05:31:04.869Z,58.76
2022-10-04T05:33:04.917Z,59.25
2022-10-04T05:36:04.857Z,58.98
2022-10-04T05:39:04.884Z,59.18
2022-10-04T05:41:04.937Z,58.69
2022-10-04T05:44:04.878Z,58.88
2022-10-04T05:46:04.947Z,58.9
2022-10-04T05:49:04.913Z,58.43
2022-10-04T05:52:04.878Z,58.8
2022-10-04T05:54:04.925Z,58.25
2022-10-04T05:57:04.870Z,58.2
2022-10-04T05:59:04.884Z,58.47
2022-10-04T06:02:04.946Z,58.96
2022-10-04T06:05:04.869Z,58.62
2022-10-04T06:07:04.895Z,58.5
2022-10-04T06:10:04.908Z,58.63
2022-10-04T06:13:04.874Z,58.38
2022-10-04T06:15:04.912Z,58.65
2022-10-04T06:18:04.902Z,58.6
2022-10-04T06:21:04.858Z,58.62
2022-10-04T06:23:04.907Z,58.12
2022-10-04T06:26:04.914Z,58.55
2022-10-04T06:29:04.859Z,58.52
2022-10-04T06:31:05.005Z,58.37
2022-10-04T06:34:05.076Z,58.59
2022-10-04T06:37:04.869Z,58.68
2022-10-04T06:39:04.871Z,58.66
2022-10-04T06:41:04.882Z,58.67
2022-10-04T06:43:04.889Z,58.98
2022-10-04T06:46:04.934Z,59.1
2022-10-04T06:48:04.910Z,59.13
2022-10-04T06:50:04.885Z,59.11
2022-10-04T06:53:04.869Z,58.71
2022-10-04T06:55:04.870Z,59.04
2022-10-04T06:57:04.871Z,59.07
2022-10-04T07:00:05.009Z,58.73
2022-10-04T07:02:04.932Z,58.72
2022-10-04T07:05:09.069Z,58.63
2022-10-04T07:07:04.856Z,58.6
2022-10-04T07:09:04.858Z,58.78
2022-10-04T07:12:04.874Z,58.89
2022-10-04T07:14:04.938Z,58.86
2022-10-04T07:17:04.891Z,58.88
2022-10-04T07:19:04.895Z,59.23
2022-10-04T07:22:04.904Z,59.26
2022-10-04T07:24:04.921Z,59.35
2022-10-04T07:27:04.947Z,59.41
2022-10-04T07:30:04.895Z,59.55
2022-10-04T07:33:04.916Z,59.76
2022-10-04T07:35:04.935Z,59.47
2022-10-04T07:38:04.898Z,59.25
2022-10-04T07:41:04.867Z,59.5
2022-10-04T07:43:04.910Z,59.34
2022-10-04T07:46:04.954Z,59.41
2022-10-04T07:49:04.913Z,59.31
2022-10-04T07:51:04.906Z,59.31
2022-10-04T07:54:04.885Z,59.29
2022-10-04T07:57:04.879Z,59.58
2022-10-04T07:59:04.947Z,59.42
2022-10-04T08:02:04.911Z,59.47
2022-10-04T08:04:04.879Z,59.44
2022-10-04T08:07:04.881Z,59.27
2022-10-04T08:09:04.908Z,59.31
2022-10-04T08:12:04.905Z,59.25
2022-10-04T08:14:04.881Z,59.19
2022-10-04T08:17:04.905Z,59.33
2022-10-04T08:19:04.907Z,59.24
2022-10-04T08:22:04.960Z,59.23
2022-10-04T08:25:04.905Z,59.29
2022-10-04T08:28:04.954Z,58.91
2022-10-04T08:30:04.952Z,58.74
2022-10-04T08:32:05.338Z,58.9
2022-10-04T08:35:04.896Z,58.72
2022-10-04T08:38:04.903Z,59.04
2022-10-04T08:41:04.884Z,59.02
2022-10-04T08:44:04.895Z,58.35
2022-10-04T08:46:04.921Z,58.88
2022-10-04T08:49:04.886Z,59.23
2022-10-04T08:51:04.936Z,59.09
2022-10-04T08:54:04.878Z,59.17
2022-10-04T08:56:05.027Z,58.86
2022-10-04T08:59:04.893Z,58.56
2022-10-04T09:02:04.901Z,58.31
2022-10-04T09:04:04.921Z,58.16
2022-10-04T09:07:04.878Z,58.25
2022-10-04T09:10:04.859Z,58.38
2022-10-04T09:12:05.034Z,58.25
2022-10-04T09:15:05.147Z,59.29
2022-10-04T09:18:04.891Z,58.77
2022-10-04T09:21:04.887Z,59.54
2022-10-04T09:23:06.460Z,59.69
2022-10-04T09:26:04.882Z,59.52
2022-10-04T09:29:05.278Z,59.3
2022-10-04T09:33:05.230Z,58.81
2022-10-04T09:36:04.899Z,58.69
2022-10-04T09:38:05.099Z,58.82
2022-10-04T09:41:04.896Z,58.54
2022-10-04T09:43:04.912Z,58.47
2022-10-04T09:46:04.998Z,58.82
2022-10-04T09:49:04.879Z,58.53
2022-10-04T09:51:04.906Z,58.38
2022-10-04T09:53:04.969Z,58.2
2022-10-04T09:56:04.883Z,58.29
2022-10-04T09:58:04.898Z,58.43
2022-10-04T10:00:04.937Z,58.02
2022-10-04T10:03:04.961Z,57.5
2022-10-04T10:06:04.894Z,57.91
2022-10-04T10:09:04.879Z,57.2
2022-10-04T10:11:04.925Z,56.86
2022-10-04T10:14:04.918Z,56.31
2022-10-04T10:16:04.983Z,56.62
2022-10-04T10:18:04.953Z,56.48
2022-10-04T10:21:04.894Z,56.87
2022-10-04T10:24:04.924Z,57.71
2022-10-04T10:26:15.192Z,57.87
2022-10-04T10:29:15.168Z,57.2
2022-10-04T10:32:04.926Z,57.4
2022-10-04T10:35:04.925Z,57.68
2022-10-04T10:37:04.992Z,56.86
2022-10-04T10:40:04.912Z,57.48
2022-10-04T10:42:04.927Z,57.64
2022-10-04T10:44:04.926Z,57.54
2022-10-04T10:47:04.928Z,57.72
2022-10-04T10:49:04.927Z,56.7
2022-10-04T10:51:04.957Z,57.28
2022-10-04T10:54:05.054Z,56.16
2022-10-04T10:57:04.901Z,56.11
2022-10-04T10:59:04.912Z,57.08
2022-10-04T11:03:12.978Z,56.14
2022-10-04T11:05:04.951Z,55.96
2022-10-04T11:08:04.901Z,54.33
2022-10-04T11:10:04.927Z,54.41
2022-10-04T11:13:04.939Z,54.81
2022-10-04T11:15:04.955Z,54.2
2022-10-04T11:18:04.970Z,53.82
2022-10-04T11:21:04.928Z,53.84
2022-10-04T11:23:05.022Z,52.71
2022-10-04T11:26:04.954Z,52.58
2022-10-04T11:29:04.911Z,52.21
2022-10-04T11:31:05.013Z,51.93
2022-10-04T11:34:04.939Z,52.12
2022-10-04T11:36:04.936Z,52.45
2022-10-04T11:38:04.951Z,52.44
2022-10-04T11:41:04.931Z,51.63
2022-10-04T11:43:04.930Z,51.37
2022-10-04T11:46:08.613Z,51.46
2022-10-04T11:48:04.955Z,51.15
2022-10-04T11:50:04.975Z,50.65
2022-10-04T11:52:04.966Z,50.88
2022-10-04T11:55:04.923Z,50.17
2022-10-04T11:57:04.935Z,50.1
2022-10-04T11:59:04.955Z,49.93
2022-10-04T12:02:04.944Z,49.61
2022-10-04T12:04:05.765Z,49.89
2022-10-04T12:07:04.961Z,49.04
2022-10-04T12:11:04.941Z,49.45
2022-10-04T12:14:04.960Z,49.22
2022-10-04T12:17:04.960Z,48.8
2022-10-04T12:19:04.918Z,48.58
2022-10-04T12:22:04.944Z,48.31
2022-10-04T12:25:04.887Z,47.93
2022-10-04T12:27:04.940Z,47.25
2022-10-04T12:30:05.019Z,46.87
2022-10-04T12:33:04.902Z,47.24
2022-10-04T12:35:04.918Z,46.77
2022-10-04T12:37:04.927Z,46.72
2022-10-04T12:39:04.947Z,46.79
2022-10-04T12:42:04.909Z,46.04
2022-10-04T12:44:04.931Z,46.05
2022-10-04T12:47:04.964Z,45.96
2022-10-04T12:49:04.913Z,45.89
2022-10-04T12:51:04.953Z,46.48
2022-10-04T12:54:04.927Z,45.8
2022-10-04T12:57:04.945Z,44.88
2022-10-04T13:00:05.038Z,44.9
2022-10-04T13:03:04.949Z,44.1
2022-10-04T13:05:05.025Z,43.47
2022-10-04T13:08:04.992Z,43.11
2022-10-04T13:11:04.962Z,43.44
2022-10-04T13:14:04.925Z,43.83
2022-10-04T13:19:09.458Z,44.11
2022-10-04T13:22:04.966Z,44.68
2022-10-04T13:24:04.955Z,44.54
2022-10-04T13:27:05.006Z,44.47
2022-10-04T13:30:04.947Z,44.2
2022-10-04T13:32:05.025Z,44.06
2022-10-04T13:35:05.495Z,43.86
2022-10-04T13:38:04.955Z,43.79
2022-10-04T13:41:04.937Z,44.02
2022-10-04T13:43:04.985Z,44.04
2022-10-04T13:46:05.021Z,44.21
2022-10-04T13:49:04.934Z,44.6
2022-10-04T13:51:04.971Z,45.02
2022-10-04T13:54:04.927Z,44.94
2022-10-04T13:56:04.979Z,44.84
2022-10-04T13:59:04.979Z,44.74
2022-10-04T14:02:04.953Z,44.64
2022-10-04T14:04:05.043Z,43.92
2022-10-04T14:07:04.998Z,43.85
2022-10-04T14:10:04.981Z,43.49
2022-10-04T14:12:04.999Z,42.93
2022-10-04T14:15:04.980Z,42.9
2022-10-04T14:18:04.956Z,42.77
2022-10-04T14:20:04.961Z,42.25
2022-10-04T14:22:04.971Z,42.25
2022-10-04T14:24:04.989Z,42.37
2022-10-04T14:27:05.027Z,42.44
2022-10-04T14:30:04.951Z,42.17
2022-10-04T14:33:04.999Z,41.38
2022-10-04T14:35:04.983Z,41.46
2022-10-04T14:37:05.016Z,41.37
2022-10-04T14:40:04.968Z,40.56
2022-10-04T14:42:04.982Z,41.02
2022-10-04T14:45:04.999Z,41.07
2022-10-04T14:47:05.501Z,40.61
2022-10-04T14:50:04.979Z,40.52
2022-10-04T14:53:04.968Z,40.55
2022-10-04T14:55:05.014Z,40.61
2022-10-04T14:58:04.950Z,40.03
2022-10-04T15:01:05.044Z,40.21
2022-10-04T15:04:05.021Z,40.53
2022-10-04T15:06:05.140Z,40
2022-10-04T15:09:04.958Z,39.92
2022-10-04T15:11:04.969Z,40.07
2022-10-04T15:14:05.140Z,40.19
2022-10-04T15:17:04.990Z,40.65
2022-10-04T15:19:05.016Z,39.68
2022-10-04T15:22:04.971Z,40.11
2022-10-04T15:25:05.053Z,40
2022-10-04T15:28:05.003Z,40.04
2022-10-04T15:30:04.992Z,40.21
2022-10-04T15:33:05.553Z,40.59
2022-10-04T15:36:04.959Z,40.5
2022-10-04T15:38:04.952Z,39.41
2022-10-04T15:41:05.061Z,39.16
2022-10-04T15:44:04.959Z,39.08
2022-10-04T15:46:05.075Z,39.41
2022-10-04T15:49:04.987Z,40.6
2022-10-04T15:52:04.962Z,41.07
2022-10-04T15:54:05.000Z,41.09
2022-10-04T15:57:05.107Z,41.2
2022-10-04T16:00:04.983Z,41.52
2022-10-04T16:02:05.078Z,41.66
2022-10-04T16:05:05.013Z,41.69
2022-10-04T16:07:05.042Z,41.6
2022-10-04T16:10:05.016Z,41.55
2022-10-04T16:13:05.001Z,41.77
2022-10-04T16:15:05.028Z,41.64
2022-10-04T16:18:05.001Z,41.95
2022-10-04T16:21:05.039Z,41.89
2022-10-04T16:23:05.040Z,42.69
2022-10-04T16:26:05.009Z,42.95
2022-10-04T16:29:04.988Z,43.61
2022-10-04T16:31:05.046Z,43.81
2022-10-04T16:34:04.979Z,44.25
2022-10-04T16:37:04.990Z,44.61
2022-10-04T16:39:05.022Z,44.88
2022-10-04T16:42:05.056Z,45.38
2022-10-04T16:45:04.978Z,45.79
2022-10-04T16:47:05.077Z,45.95
2022-10-04T16:50:05.070Z,46.82
2022-10-04T16:53:05.014Z,46.96
2022-10-04T16:55:05.027Z,47.63
2022-10-04T16:57:05.073Z,47.53
2022-10-04T17:00:04.965Z,48.01
2022-10-04T17:02:05.011Z,48.11
2022-10-04T17:05:05.000Z,48.45
2022-10-04T17:07:05.030Z,48.54
2022-10-04T17:10:05.020Z,48.98
2022-10-04T17:13:05.033Z,49.12
2022-10-04T17:16:05.030Z,49.4
2022-10-04T17:18:05.068Z,49.7
2022-10-04T17:21:05.002Z,49.87
2022-10-04T17:23:05.021Z,50.22
2022-10-04T17:26:05.618Z,50.34
2022-10-04T17:29:05.015Z,50.8
2022-10-04T17:32:04.980Z,50.89
2022-10-04T17:34:05.018Z,51.05
2022-10-04T17:37:05.022Z,51.41
2022-10-04T17:40:08.629Z,51.69
2022-10-04T17:42:06.920Z,51.87
2022-10-04T17:45:05.012Z,52.08
2022-10-04T17:48:05.006Z,52.34
2022-10-04T17:50:05.061Z,52.36
2022-10-04T17:53:05.407Z,52.45
2022-10-04T17:56:05.016Z,52.5
2022-10-04T17:58:05.029Z,52.58
2022-10-04T18:01:05.018Z,52.84
2022-10-04T18:04:05.039Z,53
2022-10-04T18:07:05.070Z,53.15
2022-10-04T18:10:04.997Z,53.12
2022-10-04T18:12:05.009Z,52.87
2022-10-04T18:14:05.020Z,53.02
2022-10-04T18:17:05.025Z,53.26
2022-10-04T18:20:05.011Z,53.46
2022-10-04T18:22:05.032Z,53.47
2022-10-04T18:25:04.990Z,53.65
2022-10-04T18:27:05.056Z,53.71
2022-10-04T18:29:05.016Z,53.9
2022-10-04T18:32:05.022Z,53.76
2022-10-04T18:34:05.015Z,53.84
2022-10-04T18:36:05.028Z,53.81
2022-10-04T18:38:05.065Z,53.81
2022-10-04T18:41:08.679Z,53.64
2022-10-04T18:44:04.991Z,53.68
2022-10-04T18:47:05.056Z,53.77
2022-10-04T18:49:05.040Z,54.04
2022-10-04T18:52:05.050Z,54.2
2022-10-04T18:55:05.064Z,53.95
2022-10-04T18:58:05.044Z,54.04
2022-10-04T19:01:05.132Z,54
2022-10-04T19:03:05.083Z,53.95
2022-10-04T19:06:05.037Z,53.97
2022-10-04T19:08:05.040Z,54.39
2022-10-04T19:10:05.067Z,54.18
2022-10-04T19:13:05.073Z,54.29
2022-10-04T19:16:05.109Z,54.84
2022-10-04T19:18:05.052Z,54.39
2022-10-04T19:20:05.057Z,54.8
2022-10-04T19:23:05.054Z,54.92
2022-10-04T19:25:05.182Z,55.17
2022-10-04T19:28:05.122Z,55.32
2022-10-04T19:30:05.067Z,54.57
2022-10-04T19:33:05.076Z,55.13
2022-10-04T19:36:05.021Z,55.05
2022-10-04T19:38:05.046Z,55.38
2022-10-04T19:40:05.059Z,55.15
2022-10-04T19:43:05.026Z,55.17
2022-10-04T19:46:05.082Z,55.58
2022-10-04T19:49:05.012Z,55.81
2022-10-04T19:52:05.024Z,55.96
2022-10-04T19:54:05.064Z,55.95
2022-10-04T19:57:05.029Z,55.98
2022-10-04T20:00:05.010Z,56.15
2022-10-04T20:02:05.609Z,56.47
2022-10-04T20:05:05.018Z,56.7
2022-10-04T20:07:05.030Z,56.71
2022-10-04T20:10:05.057Z,56.72
2022-10-04T20:12:05.045Z,56.64
2022-10-04T20:15:05.020Z,56.48
2022-10-04T20:17:05.130Z,56.69
2022-10-04T20:20:05.069Z,56.8
2022-10-04T20:22:05.082Z,57.19
2022-10-04T20:25:05.026Z,57.16
2022-10-04T20:28:05.055Z,57.93
2022-10-04T20:30:05.075Z,58.72
2022-10-04T20:33:05.095Z,58.38
2022-10-04T20:36:05.080Z,58.39
2022-10-04T20:38:27.642Z,58.58
2022-10-04T20:41:05.063Z,58.47
2022-10-04T20:43:08.215Z,58.23
2022-10-04T20:45:05.109Z,58.13
2022-10-04T20:48:05.145Z,57.57
2022-10-04T20:51:05.046Z,57.24
2022-10-04T20:53:05.048Z,56.64
2022-10-04T20:55:05.102Z,56.47
2022-10-04T20:58:05.058Z,56.12
2022-10-04T21:00:05.048Z,55.92
2022-10-04T21:03:05.269Z,55.89
2022-10-04T21:05:05.077Z,55.82
2022-10-04T21:07:05.095Z,55.76
2022-10-04T21:10:05.031Z,55.7
2022-10-04T21:12:05.087Z,55.78
2022-10-04T21:15:05.098Z,56.34
2022-10-04T21:17:05.069Z,55.98
2022-10-04T21:20:05.015Z,56.07
2022-10-04T21:22:05.073Z,56.32
2022-10-04T21:24:05.058Z,56.46
2022-10-04T21:27:05.054Z,56.52
2022-10-04T21:29:05.054Z,56.78
2022-10-04T21:32:05.207Z,57.08
2022-10-04T21:35:05.080Z,57.17
2022-10-04T21:37:05.114Z,57.08
2022-10-04T21:40:05.039Z,56.28
2022-10-04T21:43:05.034Z,56.38
2022-10-04T21:45:05.066Z,56.27
2022-10-04T21:48:05.120Z,56.07
2022-10-04T21:51:05.064Z,55.85
2022-10-04T21:53:05.045Z,55.41
2022-10-04T21:55:05.059Z,54.99
2022-10-04T21:57:05.169Z,54.2
2022-10-04T22:00:05.056Z,54.55
2022-10-04T22:03:05.073Z,54.37
2022-10-04T22:05:05.026Z,54.02
2022-10-04T22:07:05.099Z,54.23
2022-10-04T22:09:05.065Z,54.22
2022-10-04T22:12:05.059Z,55.22
2022-10-04T22:15:05.032Z,55.29
2022-10-04T22:17:05.141Z,55.51
2022-10-04T22:21:05.090Z,55.8
2022-10-04T22:24:05.066Z,56.25
2022-10-04T22:26:05.113Z,56.26
2022-10-04T22:29:05.056Z,56.44
2022-10-04T22:31:05.068Z,56.44
2022-10-04T22:33:05.115Z,56.33
2022-10-04T22:36:05.056Z,56.29
2022-10-04T22:39:05.072Z,56.42
2022-10-04T22:42:05.087Z,56.44
2022-10-04T22:44:05.078Z,56.06
2022-10-04T22:47:05.062Z,56.65
2022-10-04T22:49:05.274Z,56.56
2022-10-04T22:52:05.094Z,56.73
2022-10-04T22:55:05.089Z,57.35
2022-10-04T22:57:05.088Z,57.09
2022-10-04T23:00:05.068Z,57.17
2022-10-04T23:03:05.105Z,57.21
2022-10-04T23:06:05.090Z,56.94
2022-10-04T23:08:05.105Z,56.66
2022-10-04T23:10:05.080Z,56.22
2022-10-04T23:13:05.400Z,56.08
2022-10-04T23:16:05.233Z,55.56
2022-10-04T23:19:05.064Z,55.21
2022-10-04T23:21:05.126Z,55.07
2022-10-04T23:24:05.079Z,54.55
2022-10-04T23:26:05.107Z,54.97
2022-10-04T23:28:05.124Z,54.88
2022-10-04T23:31:05.093Z,54.92
2022-10-04T23:33:05.086Z,54.69
2022-10-04T23:36:05.073Z,54.6
2022-10-04T23:38:05.055Z,54.49
2022-10-04T23:40:05.063Z,54.34
2022-10-04T23:42:05.162Z,54.22
2022-10-04T23:45:05.105Z,54.38
2022-10-04T23:48:05.057Z,54.61
2022-10-04T23:51:05.070Z,54.63
2022-10-04T23:54:05.053Z,54.48
2022-10-04T23:56:05.094Z,54.7
2022-10-04T23:59:05.077Z,55.14
